sensor_id;sensor_type;location;lat;lon;timestamp;pressure;altitude;pressure_sealevel;temperature
75658;BMP280;64255;49.892;17.884;2023-02-13T00:00:50;100737.38;;;1.55
75658;BMP280;64255;49.892;17.884;2023-02-13T00:03:23;100725.34;;;1.58
75658;BMP280;64255;49.892;17.884;2023-02-13T00:05:50;100732.94;;;1.60
75658;BMP280;64255;49.892;17.884;2023-02-13T00:08:17;100730.72;;;1.62
75658;BMP280;64255;49.892;17.884;2023-02-13T00:10:46;100724.41;;;1.66
75658;BMP280;64255;49.892;17.884;2023-02-13T00:13:14;100726.63;;;1.64
75658;BMP280;64255;49.892;17.884;2023-02-13T00:15:42;100727.97;;;1.58
75658;BMP280;64255;49.892;17.884;2023-02-13T00:18:08;100723.06;;;1.57
75658;BMP280;64255;49.892;17.884;2023-02-13T00:20:36;100715.66;;;1.46
75658;BMP280;64255;49.892;17.884;2023-02-13T00:23:03;100719.03;;;1.47
75658;BMP280;64255;49.892;17.884;2023-02-13T00:25:30;100705.84;;;1.47
75658;BMP280;64255;49.892;17.884;2023-02-13T00:27:57;100725.09;;;1.47
75658;BMP280;64255;49.892;17.884;2023-02-13T00:30:24;100730.72;;;1.46
75658;BMP280;64255;49.892;17.884;2023-02-13T00:32:52;100725.63;;;1.53
75658;BMP280;64255;49.892;17.884;2023-02-13T00:35:18;100729.94;;;1.61
75658;BMP280;64255;49.892;17.884;2023-02-13T00:37:46;100725.19;;;1.67
75658;BMP280;64255;49.892;17.884;2023-02-13T00:40:13;100724.25;;;1.59
75658;BMP280;64255;49.892;17.884;2023-02-13T00:42:40;100726.22;;;1.62
75658;BMP280;64255;49.892;17.884;2023-02-13T00:45:08;100727.38;;;1.65
75658;BMP280;64255;49.892;17.884;2023-02-13T00:47:35;100715.22;;;1.60
75658;BMP280;64255;49.892;17.884;2023-02-13T00:50:04;100708.66;;;1.54
75658;BMP280;64255;49.892;17.884;2023-02-13T00:52:31;100726.56;;;1.61
75658;BMP280;64255;49.892;17.884;2023-02-13T00:54:58;100719.31;;;1.58
75658;BMP280;64255;49.892;17.884;2023-02-13T00:57:26;100718.63;;;1.61
75658;BMP280;64255;49.892;17.884;2023-02-13T00:59:54;100725.84;;;1.64
75658;BMP280;64255;49.892;17.884;2023-02-13T01:02:20;100721.00;;;1.50
75658;BMP280;64255;49.892;17.884;2023-02-13T01:04:48;100731.66;;;1.53
75658;BMP280;64255;49.892;17.884;2023-02-13T01:07:15;100730.91;;;1.53
75658;BMP280;64255;49.892;17.884;2023-02-13T01:09:43;100732.31;;;1.50
75658;BMP280;64255;49.892;17.884;2023-02-13T01:12:10;100738.91;;;1.57
75658;BMP280;64255;49.892;17.884;2023-02-13T01:14:37;100733.25;;;1.58
75658;BMP280;64255;49.892;17.884;2023-02-13T01:17:05;100743.84;;;1.58
75658;BMP280;64255;49.892;17.884;2023-02-13T01:19:32;100739.91;;;1.68
75658;BMP280;64255;49.892;17.884;2023-02-13T01:22:00;100729.28;;;1.64
75658;BMP280;64255;49.892;17.884;2023-02-13T01:24:27;100722.38;;;1.60
75658;BMP280;64255;49.892;17.884;2023-02-13T01:26:54;100719.81;;;1.63
75658;BMP280;64255;49.892;17.884;2023-02-13T01:29:22;100714.03;;;1.58
75658;BMP280;64255;49.892;17.884;2023-02-13T01:31:48;100704.06;;;1.51
75658;BMP280;64255;49.892;17.884;2023-02-13T01:34:16;100710.44;;;1.50
75658;BMP280;64255;49.892;17.884;2023-02-13T01:36:43;100714.53;;;1.47
75658;BMP280;64255;49.892;17.884;2023-02-13T01:39:11;100715.81;;;1.53
75658;BMP280;64255;49.892;17.884;2023-02-13T01:41:38;100717.69;;;1.53
75658;BMP280;64255;49.892;17.884;2023-02-13T01:44:52;100711.31;;;1.54
75658;BMP280;64255;49.892;17.884;2023-02-13T01:53:03;100706.69;;;1.67
75658;BMP280;64255;49.892;17.884;2023-02-13T01:55:42;100702.34;;;1.59
75658;BMP280;64255;49.892;17.884;2023-02-13T01:58:17;100696.66;;;1.57
75658;BMP280;64255;49.892;17.884;2023-02-13T02:00:46;100701.50;;;1.54
75658;BMP280;64255;49.892;17.884;2023-02-13T02:03:40;100703.56;;;1.45
75658;BMP280;64255;49.892;17.884;2023-02-13T02:06:20;100697.91;;;1.47
75658;BMP280;64255;49.892;17.884;2023-02-13T02:08:50;100696.31;;;1.42
75658;BMP280;64255;49.892;17.884;2023-02-13T02:12:00;100690.50;;;1.52
75658;BMP280;64255;49.892;17.884;2023-02-13T02:14:28;100692.81;;;1.54
75658;BMP280;64255;49.892;17.884;2023-02-13T02:16:57;100680.38;;;1.54
75658;BMP280;64255;49.892;17.884;2023-02-13T02:37:51;100680.34;;;1.70
75658;BMP280;64255;49.892;17.884;2023-02-13T02:41:04;100684.19;;;1.73
75658;BMP280;64255;49.892;17.884;2023-02-13T02:47:24;100677.03;;;1.74
75658;BMP280;64255;49.892;17.884;2023-02-13T02:58:59;100679.50;;;1.82
75658;BMP280;64255;49.892;17.884;2023-02-13T03:01:29;100682.63;;;1.88
75658;BMP280;64255;49.892;17.884;2023-02-13T03:04:00;100678.31;;;1.99
75658;BMP280;64255;49.892;17.884;2023-02-13T03:09:21;100683.31;;;1.85
75658;BMP280;64255;49.892;17.884;2023-02-13T03:11:52;100690.81;;;1.83
75658;BMP280;64255;49.892;17.884;2023-02-13T03:14:20;100694.56;;;1.82
75658;BMP280;64255;49.892;17.884;2023-02-13T03:16:50;100687.34;;;1.79
75658;BMP280;64255;49.892;17.884;2023-02-13T03:36:48;100674.16;;;2.18
75658;BMP280;64255;49.892;17.884;2023-02-13T03:41:57;100688.59;;;2.05
75658;BMP280;64255;49.892;17.884;2023-02-13T03:44:36;100698.34;;;2.00
75658;BMP280;64255;49.892;17.884;2023-02-13T03:47:09;100689.75;;;2.04
75658;BMP280;64255;49.892;17.884;2023-02-13T03:49:49;100691.16;;;2.01
75658;BMP280;64255;49.892;17.884;2023-02-13T03:52:52;100695.84;;;2.08
75658;BMP280;64255;49.892;17.884;2023-02-13T03:55:29;100685.44;;;2.15
75658;BMP280;64255;49.892;17.884;2023-02-13T03:58:12;100689.75;;;2.04
75658;BMP280;64255;49.892;17.884;2023-02-13T04:00:45;100683.75;;;2.07
75658;BMP280;64255;49.892;17.884;2023-02-13T04:03:40;100683.19;;;2.17
75658;BMP280;64255;49.892;17.884;2023-02-13T04:06:24;100679.03;;;2.16
75658;BMP280;64255;49.892;17.884;2023-02-13T04:08:53;100682.09;;;2.18
75658;BMP280;64255;49.892;17.884;2023-02-13T04:11:32;100682.06;;;1.98
75658;BMP280;64255;49.892;17.884;2023-02-13T04:14:19;100673.25;;;2.10
75658;BMP280;64255;49.892;17.884;2023-02-13T04:17:04;100686.56;;;2.33
75658;BMP280;64255;49.892;17.884;2023-02-13T04:19:33;100675.19;;;2.53
75658;BMP280;64255;49.892;17.884;2023-02-13T04:22:01;100678.03;;;2.44
75658;BMP280;64255;49.892;17.884;2023-02-13T04:24:29;100673.66;;;2.52
75658;BMP280;64255;49.892;17.884;2023-02-13T04:26:57;100673.16;;;2.46
75658;BMP280;64255;49.892;17.884;2023-02-13T04:29:25;100677.22;;;2.20
75658;BMP280;64255;49.892;17.884;2023-02-13T04:31:53;100672.63;;;2.37
75658;BMP280;64255;49.892;17.884;2023-02-13T04:34:19;100662.09;;;2.40
75658;BMP280;64255;49.892;17.884;2023-02-13T04:36:47;100671.81;;;2.32
75658;BMP280;64255;49.892;17.884;2023-02-13T04:39:14;100676.03;;;2.37
75658;BMP280;64255;49.892;17.884;2023-02-13T04:41:42;100675.13;;;2.49
75658;BMP280;64255;49.892;17.884;2023-02-13T04:44:08;100674.22;;;2.41
75658;BMP280;64255;49.892;17.884;2023-02-13T04:46:36;100673.03;;;2.39
75658;BMP280;64255;49.892;17.884;2023-02-13T04:49:03;100677.78;;;2.49
75658;BMP280;64255;49.892;17.884;2023-02-13T04:51:30;100677.00;;;2.48
75658;BMP280;64255;49.892;17.884;2023-02-13T04:53:58;100672.91;;;2.51
75658;BMP280;64255;49.892;17.884;2023-02-13T04:56:26;100658.28;;;2.57
75658;BMP280;64255;49.892;17.884;2023-02-13T04:58:54;100664.34;;;2.58
75658;BMP280;64255;49.892;17.884;2023-02-13T05:01:21;100660.97;;;2.61
75658;BMP280;64255;49.892;17.884;2023-02-13T05:03:49;100659.81;;;2.58
75658;BMP280;64255;49.892;17.884;2023-02-13T05:06:16;100660.66;;;2.62
75658;BMP280;64255;49.892;17.884;2023-02-13T05:08:43;100659.53;;;2.63
75658;BMP280;64255;49.892;17.884;2023-02-13T05:11:10;100664.72;;;2.60
75658;BMP280;64255;49.892;17.884;2023-02-13T05:13:38;100663.84;;;2.52
75658;BMP280;64255;49.892;17.884;2023-02-13T05:16:06;100668.84;;;2.57
75658;BMP280;64255;49.892;17.884;2023-02-13T05:18:33;100673.03;;;2.58
75658;BMP280;64255;49.892;17.884;2023-02-13T05:21:00;100672.28;;;2.58
75658;BMP280;64255;49.892;17.884;2023-02-13T05:23:28;100671.91;;;2.59
75658;BMP280;64255;49.892;17.884;2023-02-13T05:25:55;100671.84;;;2.56
75658;BMP280;64255;49.892;17.884;2023-02-13T05:28:22;100667.25;;;2.53
75658;BMP280;64255;49.892;17.884;2023-02-13T05:30:49;100663.38;;;2.46
75658;BMP280;64255;49.892;17.884;2023-02-13T05:33:16;100661.00;;;2.41
75658;BMP280;64255;49.892;17.884;2023-02-13T05:35:43;100662.47;;;2.39
75658;BMP280;64255;49.892;17.884;2023-02-13T05:38:11;100669.34;;;2.43
75658;BMP280;64255;49.892;17.884;2023-02-13T05:40:38;100673.38;;;2.37
75658;BMP280;64255;49.892;17.884;2023-02-13T05:43:05;100680.34;;;2.45
75658;BMP280;64255;49.892;17.884;2023-02-13T05:45:33;100679.03;;;2.36
75658;BMP280;64255;49.892;17.884;2023-02-13T05:47:59;100672.94;;;2.35
75658;BMP280;64255;49.892;17.884;2023-02-13T05:50:27;100680.56;;;2.37
75658;BMP280;64255;49.892;17.884;2023-02-13T05:52:55;100676.78;;;2.38
75658;BMP280;64255;49.892;17.884;2023-02-13T05:55:23;100678.19;;;2.31
75658;BMP280;64255;49.892;17.884;2023-02-13T05:57:49;100673.22;;;2.26
75658;BMP280;64255;49.892;17.884;2023-02-13T06:00:21;100682.25;;;2.25
75658;BMP280;64255;49.892;17.884;2023-02-13T06:02:49;100676.91;;;2.22
75658;BMP280;64255;49.892;17.884;2023-02-13T06:05:16;100666.31;;;2.22
75658;BMP280;64255;49.892;17.884;2023-02-13T06:07:43;100678.13;;;2.28
75658;BMP280;64255;49.892;17.884;2023-02-13T06:10:11;100674.59;;;2.20
75658;BMP280;64255;49.892;17.884;2023-02-13T06:12:38;100668.06;;;2.14
75658;BMP280;64255;49.892;17.884;2023-02-13T06:15:06;100665.41;;;2.14
75658;BMP280;64255;49.892;17.884;2023-02-13T06:17:34;100677.78;;;2.10
75658;BMP280;64255;49.892;17.884;2023-02-13T06:20:01;100673.53;;;2.05
75658;BMP280;64255;49.892;17.884;2023-02-13T06:22:28;100676.16;;;2.05
75658;BMP280;64255;49.892;17.884;2023-02-13T06:24:56;100678.13;;;2.08
75658;BMP280;64255;49.892;17.884;2023-02-13T06:27:23;100678.44;;;2.07
75658;BMP280;64255;49.892;17.884;2023-02-13T06:29:50;100680.41;;;2.10
75658;BMP280;64255;49.892;17.884;2023-02-13T06:32:18;100689.03;;;2.07
75658;BMP280;64255;49.892;17.884;2023-02-13T06:34:45;100681.59;;;2.12
75658;BMP280;64255;49.892;17.884;2023-02-13T06:37:13;100685.78;;;2.13
75658;BMP280;64255;49.892;17.884;2023-02-13T06:39:39;100668.47;;;2.16
75658;BMP280;64255;49.892;17.884;2023-02-13T06:42:07;100670.13;;;2.24
75658;BMP280;64255;49.892;17.884;2023-02-13T06:44:34;100670.31;;;2.35
75658;BMP280;64255;49.892;17.884;2023-02-13T06:47:02;100670.69;;;2.33
75658;BMP280;64255;49.892;17.884;2023-02-13T06:49:28;100676.03;;;2.37
75658;BMP280;64255;49.892;17.884;2023-02-13T06:51:56;100678.72;;;2.41
75658;BMP280;64255;49.892;17.884;2023-02-13T06:54:23;100681.31;;;2.37
75658;BMP280;64255;49.892;17.884;2023-02-13T06:56:50;100671.22;;;2.43
75658;BMP280;64255;49.892;17.884;2023-02-13T06:59:17;100669.34;;;2.43
75658;BMP280;64255;49.892;17.884;2023-02-13T07:01:44;100680.00;;;2.47
75658;BMP280;64255;49.892;17.884;2023-02-13T07:04:12;100679.44;;;2.57
75658;BMP280;64255;49.892;17.884;2023-02-13T07:06:39;100672.91;;;2.51
75658;BMP280;64255;49.892;17.884;2023-02-13T07:09:06;100670.38;;;2.58
75658;BMP280;64255;49.892;17.884;2023-02-13T07:11:34;100667.84;;;2.66
75658;BMP280;64255;49.892;17.884;2023-02-13T07:14:01;100671.78;;;2.75
75658;BMP280;64255;49.892;17.884;2023-02-13T07:16:28;100665.56;;;2.64
75658;BMP280;64255;49.892;17.884;2023-02-13T07:18:55;100669.75;;;2.65
75658;BMP280;64255;49.892;17.884;2023-02-13T07:21:23;100665.56;;;2.64
75658;BMP280;64255;49.892;17.884;2023-02-13T07:23:51;100669.06;;;2.68
75658;BMP280;64255;49.892;17.884;2023-02-13T07:26:18;100670.19;;;2.71
75658;BMP280;64255;49.892;17.884;2023-02-13T07:28:46;100673.69;;;2.75
75658;BMP280;64255;49.892;17.884;2023-02-13T07:31:13;100681.69;;;2.78
75658;BMP280;64255;49.892;17.884;2023-02-13T07:33:40;100668.28;;;2.91
75658;BMP280;64255;49.892;17.884;2023-02-13T07:36:07;100670.97;;;3.45
75658;BMP280;64255;49.892;17.884;2023-02-13T07:38:35;100657.88;;;3.55
75658;BMP280;64255;49.892;17.884;2023-02-13T07:41:03;100659.94;;;3.69
75658;BMP280;64255;49.892;17.884;2023-02-13T07:43:30;100658.63;;;3.86
75658;BMP280;64255;49.892;17.884;2023-02-13T07:46:00;100655.84;;;3.72
75658;BMP280;64255;49.892;17.884;2023-02-13T07:48:28;100659.91;;;3.66
75658;BMP280;64255;49.892;17.884;2023-02-13T07:51:02;100658.75;;;3.63
75658;BMP280;64255;49.892;17.884;2023-02-13T07:53:30;100660.56;;;3.89
75658;BMP280;64255;49.892;17.884;2023-02-13T07:55:57;100649.09;;;3.78
75658;BMP280;64255;49.892;17.884;2023-02-13T07:58:25;100641.28;;;3.89
75658;BMP280;64255;49.892;17.884;2023-02-13T08:00:52;100641.47;;;4.07
75658;BMP280;64255;49.892;17.884;2023-02-13T08:03:19;100644.00;;;3.96
75658;BMP280;64255;49.892;17.884;2023-02-13T08:05:48;100647.56;;;4.11
75658;BMP280;64255;49.892;17.884;2023-02-13T08:08:16;100642.94;;;4.04
75658;BMP280;64255;49.892;17.884;2023-02-13T08:10:43;100642.00;;;4.20
75658;BMP280;64255;49.892;17.884;2023-02-13T08:13:13;100647.56;;;4.11
75658;BMP280;64255;49.892;17.884;2023-02-13T08:15:40;100648.47;;;4.26
75658;BMP280;64255;49.892;17.884;2023-02-13T08:18:07;100658.31;;;4.26
75658;BMP280;64255;49.892;17.884;2023-02-13T08:20:36;100659.84;;;4.23
75658;BMP280;64255;49.892;17.884;2023-02-13T08:23:09;100658.63;;;4.54
75658;BMP280;64255;49.892;17.884;2023-02-13T08:25:38;100660.00;;;4.41
75658;BMP280;64255;49.892;17.884;2023-02-13T08:28:05;100669.91;;;4.48
75658;BMP280;64255;49.892;17.884;2023-02-13T08:30:33;100671.34;;;4.79
75658;BMP280;64255;49.892;17.884;2023-02-13T08:32:59;100679.78;;;4.92
75658;BMP280;64255;49.892;17.884;2023-02-13T08:35:26;100678.97;;;4.88
75658;BMP280;64255;49.892;17.884;2023-02-13T08:37:54;100673.03;;;5.06
75658;BMP280;64255;49.892;17.884;2023-02-13T08:40:22;100676.13;;;5.11
75658;BMP280;64255;49.892;17.884;2023-02-13T08:42:49;100683.97;;;4.97
75658;BMP280;64255;49.892;17.884;2023-02-13T08:45:17;100682.50;;;5.03
75658;BMP280;64255;49.892;17.884;2023-02-13T08:47:44;100685.53;;;5.05
75658;BMP280;64255;49.892;17.884;2023-02-13T08:50:11;100682.25;;;5.23
75658;BMP280;64255;49.892;17.884;2023-02-13T08:52:38;100682.69;;;5.28
75658;BMP280;64255;49.892;17.884;2023-02-13T08:55:06;100681.16;;;5.27
75658;BMP280;64255;49.892;17.884;2023-02-13T08:57:33;100684.09;;;5.18
75658;BMP280;64255;49.892;17.884;2023-02-13T09:00:00;100682.97;;;5.20
75658;BMP280;64255;49.892;17.884;2023-02-13T09:02:28;100691.44;;;5.36
75658;BMP280;64255;49.892;17.884;2023-02-13T09:04:55;100697.97;;;5.46
75658;BMP280;64255;49.892;17.884;2023-02-13T09:07:22;100698.31;;;5.41
75658;BMP280;64255;49.892;17.884;2023-02-13T09:09:49;100701.00;;;5.44
75658;BMP280;64255;49.892;17.884;2023-02-13T09:12:17;100704.03;;;5.43
75658;BMP280;64255;49.892;17.884;2023-02-13T09:14:44;100709.44;;;5.61
75658;BMP280;64255;49.892;17.884;2023-02-13T09:17:13;100707.38;;;5.32
75658;BMP280;64255;49.892;17.884;2023-02-13T09:19:40;100709.31;;;5.39
75658;BMP280;64255;49.892;17.884;2023-02-13T09:22:07;100710.53;;;5.53
75658;BMP280;64255;49.892;17.884;2023-02-13T09:24:35;100707.91;;;5.60
75658;BMP280;64255;49.892;17.884;2023-02-13T09:27:04;100710.56;;;5.60
75658;BMP280;64255;49.892;17.884;2023-02-13T09:29:30;100720.00;;;5.46
75658;BMP280;64255;49.892;17.884;2023-02-13T09:31:57;100712.31;;;5.34
75658;BMP280;64255;49.892;17.884;2023-02-13T09:34:25;100713.88;;;5.42
75658;BMP280;64255;49.892;17.884;2023-02-13T09:36:53;100708.13;;;5.37
75658;BMP280;64255;49.892;17.884;2023-02-13T09:39:20;100710.84;;;5.40
75658;BMP280;64255;49.892;17.884;2023-02-13T09:41:51;100713.50;;;5.40
75658;BMP280;64255;49.892;17.884;2023-02-13T09:49:56;100703.31;;;5.49
75658;BMP280;64255;49.892;17.884;2023-02-13T09:52:33;100699.16;;;5.52
75658;BMP280;64255;49.892;17.884;2023-02-13T09:55:02;100708.63;;;5.53
75658;BMP280;64255;49.892;17.884;2023-02-13T09:57:33;100694.22;;;5.54
75658;BMP280;64255;49.892;17.884;2023-02-13T10:00:31;100696.09;;;5.54
75658;BMP280;64255;49.892;17.884;2023-02-13T10:06:07;100700.66;;;5.53
75658;BMP280;64255;49.892;17.884;2023-02-13T10:11:44;100686.66;;;5.63
75658;BMP280;64255;49.892;17.884;2023-02-13T10:15:40;100691.59;;;5.65
75658;BMP280;64255;49.892;17.884;2023-02-13T10:17:42;100688.28;;;5.82
75658;BMP280;64255;49.892;17.884;2023-02-13T10:20:47;100681.81;;;5.84
75658;BMP280;64255;49.892;17.884;2023-02-13T10:26:32;100683.28;;;5.70
75658;BMP280;64255;49.892;17.884;2023-02-13T10:29:06;100683.28;;;5.74
75658;BMP280;64255;49.892;17.884;2023-02-13T10:31:38;100674.97;;;5.75
75658;BMP280;64255;49.892;17.884;2023-02-13T10:34:15;100681.41;;;5.74
75658;BMP280;64255;49.892;17.884;2023-02-13T10:36:45;100677.63;;;5.75
75658;BMP280;64255;49.892;17.884;2023-02-13T10:39:30;100673.84;;;5.80
75658;BMP280;64255;49.892;17.884;2023-02-13T10:42:20;100669.28;;;5.80
75658;BMP280;64255;49.892;17.884;2023-02-13T10:48:05;100663.25;;;5.94
75658;BMP280;64255;49.892;17.884;2023-02-13T10:51:00;100665.56;;;6.07
75658;BMP280;64255;49.892;17.884;2023-02-13T10:53:45;100660.22;;;6.03
75658;BMP280;64255;49.892;17.884;2023-02-13T11:02:20;100651.88;;;6.16
75658;BMP280;64255;49.892;17.884;2023-02-13T11:05:13;100642.78;;;6.13
75658;BMP280;64255;49.892;17.884;2023-02-13T11:07:45;100638.97;;;6.18
75658;BMP280;64255;49.892;17.884;2023-02-13T11:10:16;100630.63;;;6.23
75658;BMP280;64255;49.892;17.884;2023-02-13T11:12:45;100632.91;;;6.24
75658;BMP280;64255;49.892;17.884;2023-02-13T11:15:27;100625.69;;;6.32
75658;BMP280;64255;49.892;17.884;2023-02-13T11:18:02;100621.50;;;6.38
75658;BMP280;64255;49.892;17.884;2023-02-13T11:20:40;100607.06;;;6.36
75658;BMP280;64255;49.892;17.884;2023-02-13T11:23:31;100612.38;;;6.43
75658;BMP280;64255;49.892;17.884;2023-02-13T11:29:29;100612.38;;;6.68
75658;BMP280;64255;49.892;17.884;2023-02-13T11:32:18;100600.22;;;6.60
75658;BMP280;64255;49.892;17.884;2023-02-13T11:34:47;100607.81;;;6.72
75658;BMP280;64255;49.892;17.884;2023-02-13T11:39:56;100609.66;;;6.90
75658;BMP280;64255;49.892;17.884;2023-02-13T11:42:31;100601.63;;;6.97
75658;BMP280;64255;49.892;17.884;2023-02-13T11:45:23;100614.19;;;7.15
75658;BMP280;64255;49.892;17.884;2023-02-13T11:47:53;100616.81;;;7.29
75658;BMP280;64255;49.892;17.884;2023-02-13T11:50:31;100615.66;;;7.30
75658;BMP280;64255;49.892;17.884;2023-02-13T11:53:06;100623.59;;;7.37
75658;BMP280;64255;49.892;17.884;2023-02-13T11:55:39;100618.28;;;7.45
75658;BMP280;64255;49.892;17.884;2023-02-13T12:00:39;100606.03;;;7.51
75658;BMP280;64255;49.892;17.884;2023-02-13T12:03:30;100600.25;;;7.63
75658;BMP280;64255;49.892;17.884;2023-02-13T12:08:39;100599.28;;;8.02
75658;BMP280;64255;49.892;17.884;2023-02-13T12:14:00;100585.97;;;7.99
75658;BMP280;64255;49.892;17.884;2023-02-13T12:16:54;100573.38;;;7.99
75658;BMP280;64255;49.892;17.884;2023-02-13T12:19:46;100566.81;;;8.04
75658;BMP280;64255;49.892;17.884;2023-02-13T12:22:42;100570.53;;;8.17
75658;BMP280;64255;49.892;17.884;2023-02-13T12:25:38;100566.72;;;8.18
75658;BMP280;64255;49.892;17.884;2023-02-13T12:28:41;100566.78;;;8.11
75658;BMP280;64255;49.892;17.884;2023-02-13T12:31:30;100563.00;;;8.05
75658;BMP280;64255;49.892;17.884;2023-02-13T12:40:06;100555.09;;;7.94
75658;BMP280;64255;49.892;17.884;2023-02-13T12:46:14;100549.72;;;8.01
75658;BMP280;64255;49.892;17.884;2023-02-13T12:48:55;100550.09;;;8.00
75658;BMP280;64255;49.892;17.884;2023-02-13T12:57:38;100558.34;;;8.16
75658;BMP280;64255;49.892;17.884;2023-02-13T13:00:44;100566.75;;;8.15
75658;BMP280;64255;49.892;17.884;2023-02-13T13:03:42;100563.44;;;8.00
75658;BMP280;64255;49.892;17.884;2023-02-13T13:09:39;100569.47;;;8.07
75658;BMP280;64255;49.892;17.884;2023-02-13T13:20:59;100563.66;;;7.71
75658;BMP280;64255;49.892;17.884;2023-02-13T13:26:39;100580.47;;;7.61
75658;BMP280;64255;49.892;17.884;2023-02-13T13:30:01;100585.47;;;7.48
75658;BMP280;64255;49.892;17.884;2023-02-13T13:32:30;100590.91;;;7.26
75658;BMP280;64255;49.892;17.884;2023-02-13T13:34:59;100586.00;;;7.14
75658;BMP280;64255;49.892;17.884;2023-02-13T13:37:57;100583.25;;;7.35
75658;BMP280;64255;49.892;17.884;2023-02-13T13:40:58;100583.63;;;7.34
75658;BMP280;64255;49.892;17.884;2023-02-13T13:50:29;100586.69;;;7.39
75658;BMP280;64255;49.892;17.884;2023-02-13T13:58:44;100590.16;;;7.29
75658;BMP280;64255;49.892;17.884;2023-02-13T14:06:28;100614.53;;;7.09
75658;BMP280;64255;49.892;17.884;2023-02-13T14:09:42;100608.09;;;7.10
75658;BMP280;64255;49.892;17.884;2023-02-13T14:14:59;100610.81;;;6.92
75658;BMP280;64255;49.892;17.884;2023-02-13T14:23:46;100620.75;;;6.49
75658;BMP280;64255;49.892;17.884;2023-02-13T14:31:31;100610.09;;;6.16
75658;BMP280;64255;49.892;17.884;2023-02-13T14:36:58;100610.09;;;6.34
75658;BMP280;64255;49.892;17.884;2023-02-13T14:39:33;100613.91;;;6.26
75658;BMP280;64255;49.892;17.884;2023-02-13T14:42:41;100618.06;;;6.09
75658;BMP280;64255;49.892;17.884;2023-02-13T14:45:24;100616.16;;;6.17
75658;BMP280;64255;49.892;17.884;2023-02-13T14:47:55;100614.66;;;6.08
75658;BMP280;64255;49.892;17.884;2023-02-13T14:50:29;100611.56;;;5.99
75658;BMP280;64255;49.892;17.884;2023-02-13T14:53:13;100602.09;;;6.02
75658;BMP280;64255;49.892;17.884;2023-02-13T14:55:45;100610.06;;;6.05
75658;BMP280;64255;49.892;17.884;2023-02-13T14:58:30;100600.97;;;6.28
75658;BMP280;64255;49.892;17.884;2023-02-13T15:03:53;100594.47;;;5.93
75658;BMP280;64255;49.892;17.884;2023-02-13T15:06:32;100585.75;;;6.03
75658;BMP280;64255;49.892;17.884;2023-02-13T15:09:05;100585.75;;;6.03
75658;BMP280;64255;49.892;17.884;2023-02-13T15:11:42;100583.03;;;5.67
75658;BMP280;64255;49.892;17.884;2023-02-13T15:14:32;100590.66;;;5.90
75658;BMP280;64255;49.892;17.884;2023-02-13T15:17:15;100580.81;;;6.09
75658;BMP280;64255;49.892;17.884;2023-02-13T15:19:54;100575.09;;;5.89
75658;BMP280;64255;49.892;17.884;2023-02-13T15:22:36;100585.38;;;5.94
75658;BMP280;64255;49.892;17.884;2023-02-13T15:25:07;100577.78;;;6.14
75658;BMP280;64255;49.892;17.884;2023-02-13T15:27:43;100580.38;;;5.71
75658;BMP280;64255;49.892;17.884;2023-02-13T15:30:21;100581.97;;;5.97
75658;BMP280;64255;49.892;17.884;2023-02-13T15:33:19;100570.06;;;5.51
75658;BMP280;64255;49.892;17.884;2023-02-13T15:36:04;100574.91;;;5.31
75658;BMP280;64255;49.892;17.884;2023-02-13T15:38:36;100578.06;;;5.58
75658;BMP280;64255;49.892;17.884;2023-02-13T15:41:23;100572.38;;;5.63
75658;BMP280;64255;49.892;17.884;2023-02-13T15:43:56;100583.38;;;5.69
75658;BMP280;64255;49.892;17.884;2023-02-13T15:46:36;100577.75;;;5.81
75658;BMP280;64255;49.892;17.884;2023-02-13T15:49:13;100568.44;;;5.21
75658;BMP280;64255;49.892;17.884;2023-02-13T15:51:43;100566.31;;;5.63
75658;BMP280;64255;49.892;17.884;2023-02-13T15:54:29;100559.88;;;5.78
75658;BMP280;64255;49.892;17.884;2023-02-13T15:57:05;100558.75;;;5.90
75658;BMP280;64255;49.892;17.884;2023-02-13T15:59:37;100558.38;;;5.92
75658;BMP280;64255;49.892;17.884;2023-02-13T16:02:19;100565.97;;;5.82
75658;BMP280;64255;49.892;17.884;2023-02-13T16:04:51;100571.28;;;5.75
75658;BMP280;64255;49.892;17.884;2023-02-13T16:07:20;100563.63;;;5.52
75658;BMP280;64255;49.892;17.884;2023-02-13T16:09:47;100562.41;;;5.28
75658;BMP280;64255;49.892;17.884;2023-02-13T16:12:27;100568.84;;;5.38
75658;BMP280;64255;49.892;17.884;2023-02-13T16:15:01;100561.75;;;5.63
75658;BMP280;64255;49.892;17.884;2023-02-13T16:17:38;100555.28;;;5.72
75658;BMP280;64255;49.892;17.884;2023-02-13T16:20:20;100552.28;;;5.80
75658;BMP280;64255;49.892;17.884;2023-02-13T16:23:02;100563.63;;;5.59
75658;BMP280;64255;49.892;17.884;2023-02-13T16:25:38;100558.94;;;5.20
75658;BMP280;64255;49.892;17.884;2023-02-13T16:28:22;100557.16;;;5.53
75658;BMP280;64255;49.892;17.884;2023-02-13T16:31:02;100557.59;;;5.73
75658;BMP280;64255;49.892;17.884;2023-02-13T16:33:38;100555.28;;;5.61
75658;BMP280;64255;49.892;17.884;2023-02-13T16:38:44;100568.94;;;5.56
75658;BMP280;64255;49.892;17.884;2023-02-13T16:46:30;100552.59;;;5.46
75658;BMP280;64255;49.892;17.884;2023-02-13T16:49:13;100547.31;;;5.57
75658;BMP280;64255;49.892;17.884;2023-02-13T16:51:52;100551.50;;;5.62
75658;BMP280;64255;49.892;17.884;2023-02-13T17:07:44;100561.94;;;5.18
75658;BMP280;64255;49.892;17.884;2023-02-13T17:10:34;100577.13;;;5.22
75658;BMP280;64255;49.892;17.884;2023-02-13T17:13:14;100564.16;;;5.06
75658;BMP280;64255;49.892;17.884;2023-02-13T17:15:44;100564.97;;;5.13
75658;BMP280;64255;49.892;17.884;2023-02-13T17:18:12;100579.31;;;5.05
75658;BMP280;64255;49.892;17.884;2023-02-13T17:20:42;100572.88;;;5.06
75658;BMP280;64255;49.892;17.884;2023-02-13T17:23:20;100570.19;;;4.95
75658;BMP280;64255;49.892;17.884;2023-02-13T17:25:49;100572.50;;;5.00
75658;BMP280;64255;49.892;17.884;2023-02-13T17:28:19;100558.84;;;5.02
75658;BMP280;64255;49.892;17.884;2023-02-13T17:30:51;100559.25;;;5.08
75658;BMP280;64255;49.892;17.884;2023-02-13T17:33:29;100570.94;;;4.96
75658;BMP280;64255;49.892;17.884;2023-02-13T17:35:56;100566.09;;;4.53
75658;BMP280;64255;49.892;17.884;2023-02-13T17:38:23;100567.53;;;4.95